• Join FlightAware (Why Join?)
  • Login
  • US Flag 
10:27AM EDT


 

Airport Tracker/Info


-or-


 

Live Flight TrackerFlight Track Log ✈ UAL4093 ✈ 09-Apr-2013 ✈ KCVG - KEWR

Flight Track Log - Related Links

Times and Time Zones

All times are in EDT time to prevent confusion due to time zone crossing. See the UAL4093 flight status page for this flight to view local times or setup timezone preferences in your user account.

Time Position Orientation Groundspeed Altitude Reporting Facility
EDT Latitude Longitude Course Direction KTS MPH feet Rate Location/Type
06:13PM 39.0333 -84.6667 North 154 177 1,400  Level Cincinnati TRACON
06:14PM 39.0167 -84.6000 108° East 247 284 3,200 1,740 Climbing Cincinnati TRACON
06:15PM 39.0333 -84.5167 76° East 281 323 5,000 1,980 Climbing Cincinnati TRACON
06:16PM 39.0327 -84.4169 15° North  Level FlightAware Approximate
06:16PM 39.0667 -84.4167 67° East 313 360 7,000  Level Cincinnati TRACON
06:17PM 39.1386 -84.4000 North  Level FlightAware Approximate
06:18PM 39.2461 -84.4000 North  Level FlightAware Approximate
06:18PM 39.1958 -84.4100 North 303 349 10,500  Level Indianapolis Center
06:19PM 39.2900 -84.4083 North 318 366 11,200 1,020 Climbing Indianapolis Center
06:20PM 39.3956 -84.4075 360° North 347 399 12,700 1,740 Climbing Indianapolis Center
06:21PM 39.5006 -84.4089 359° North 367 422 14,800 1,740 Climbing Indianapolis Center
06:22PM 39.5958 -84.3619 21° North 379 436 16,300 1,320 Climbing Indianapolis Center
06:23PM 39.6964 -84.2600 38° Northeast 391 450 17,600 1,080 Climbing Indianapolis Center
06:24PM 39.7861 -84.1675 38° Northeast 403 464 18,600 960 Climbing Indianapolis Center
06:25PM 39.8739 -84.0686 41° Northeast 412 474 19,700 1,020 Climbing Indianapolis Center
06:26PM 39.9594 -83.9600 44° Northeast 422 486 20,800 1,080 Climbing Indianapolis Center
06:27PM 40.0475 -83.8514 43° Northeast 427 491 22,000 1,140 Climbing Indianapolis Center
06:28PM 40.1339 -83.7417 44° Northeast 426 490 23,200 1,140 Climbing Indianapolis Center
06:29PM 40.2217 -83.6314 44° Northeast 430 495 24,400 1,200 Climbing Indianapolis Center
06:30PM 40.3089 -83.5225 44° Northeast 428 493 25,800 1,260 Climbing Indianapolis Center
06:31PM 40.3936 -83.4144 44° Northeast 422 486 27,100 1,200 Climbing Indianapolis Center
06:32PM 40.4914 -83.2900 44° Northeast 417 480 28,400 1,140 Climbing Indianapolis Center
06:33PM 40.5750 -83.1828 44° Northeast 416 479 29,500 1,020 Climbing Indianapolis Center
06:34PM 40.6547 -83.0806 44° Northeast 422 486 30,600 1,200 Climbing Indianapolis Center
06:35PM 40.7019 -83.0181 45° Northeast 416 479 31,400 1,380 Climbing Cleveland Center
06:36PM 40.7508 -82.8744 66° East 416 479 32,700 1,380 Climbing Cleveland Center
06:37PM 40.7892 -82.7278 71° East 411 473 34,200 1,140 Climbing Cleveland Center
06:38PM 40.8250 -82.5833 72° East 416 479 35,000 360 Climbing Cleveland Center
06:39PM 40.8672 -82.4311 70° East 418 481 35,000  Level Cleveland Center
06:40PM 40.9094 -82.2700 71° East 442 509 35,000  Level Cleveland Center
06:41PM 40.9514 -82.1061 71° East 462 532 35,000  Level Cleveland Center
06:42PM 40.9928 -81.9475 71° East 458 527 35,000  Level Cleveland Center
06:43PM 41.0344 -81.7806 72° East 463 533 35,000  Level Cleveland Center
06:44PM 41.0756 -81.6161 72° East 463 533 35,000  Level Cleveland Center
06:45PM 41.1186 -81.4486 71° East 469 540 35,000  Level Cleveland Center
06:46PM 41.1594 -81.2836 72° East 464 534 35,000  Level Cleveland Center
06:47PM 41.2000 -81.1239 71° East 459 528 35,000  Level Cleveland Center
06:48PM 41.2422 -80.9531 72° East 469 540 35,000  Level Cleveland Center
06:49PM 41.2844 -80.7847 71° East 469 540 35,000  Level Cleveland Center
06:50PM 41.3242 -80.6192 72° East 469 540 35,000  Level Cleveland Center
06:51PM 41.3575 -80.4475 75° East 474 545 35,000  Level Cleveland Center
06:52PM 41.3614 -80.2844 88° East 480 552 35,000  Level Cleveland Center
06:53PM 41.3628 -80.1072 89° East 480 552 35,000  Level Cleveland Center
06:54PM 41.3639 -79.9275 89° East 475 547 35,000  Level Cleveland Center
06:55PM 41.3650 -79.7503 89° East 475 547 35,000  Level Cleveland Center
06:56PM 41.3656 -79.5650 90° East 481 554 35,000  Level Cleveland Center
06:57PM 41.3658 -79.3686 90° East 481 554 35,000  Level Cleveland Center
06:58PM 41.3658 -79.1858 90° East 476 548 35,000  Level Cleveland Center
06:59PM 41.3656 -79.0061 90° East 481 554 35,000  Level Cleveland Center
07:00PM 41.3672 -78.8317 89° East 475 547 35,000  Level Cleveland Center
07:01PM 41.3644 -78.6603 91° East 475 547 35,000  Level Cleveland Center
07:02PM 41.3633 -78.4806 90° East 475 547 35,000  Level Cleveland Center
07:03PM 41.3619 -78.3036 91° East 475 547 35,000 -240 Level Cleveland Center
07:03PM 41.3592 -78.1764 92° East 477 549 34,600 -1,440 Descending New York Center
07:04PM 41.3578 -77.9964 91° East 491 565 32,600 -1,800 Descending New York Center
07:05PM 41.3600 -77.8197 89° East 491 565 31,100 -840 Descending New York Center
07:06PM 41.4011 -77.6525 72° East 477 549 31,000 -60 Descending New York Center
07:07PM 41.3947 -77.4747 93° East 477 549 31,000  Level New York Center
07:08PM 41.3628 -77.3003 104° East 477 549 31,000  Level New York Center
07:09PM 41.3306 -77.1231 104° East 489 563 31,000 -180 Level New York Center
07:10PM 41.3003 -76.9461 103° East 489 563 30,700 -1,140 Descending New York Center
07:11PM 41.2681 -76.7664 103° East 494 568 28,800 -2,220 Descending New York Center
07:12PM 41.2372 -76.5900 103° East 499 574 26,400 -2,400 Descending New York Center
07:13PM 41.2072 -76.4328 104° East 494 568 24,000 -2,520 Descending New York Center
07:14PM 41.1797 -76.2622 102° East 481 554 21,400 -2,700 Descending New York Center
07:15PM 41.1464 -76.0806 104° East 468 539 18,600 -2,580 Descending New York Center
07:16PM 41.1094 -75.9261 108° East 455 524 16,400 -2,100 Descending New York Center
07:17PM 41.0714 -75.7939 111° Southeast 433 498 14,500 -1,620 Descending New York Center
07:18PM 41.0317 -75.6478 110° East 422 486 13,200 -780 Descending New York Center
07:19PM 40.9900 -75.4964 110° East 405 466 13,000 -180 Descending New York Center
07:20PM 40.9589 -75.3900 111° Southeast 367 422 12,900 -780 Descending New York Center
07:21PM 40.9258 -75.2722 110° East 340 391 11,500 -1,560 Descending New York Center
07:22PM 40.8908 -75.1464 110° East 334 384 9,800 -1,620 Descending New York Center
07:23PM 40.8594 -75.0403 111° Southeast 325 374 8,300 -1,440 Descending New York Center
07:24PM 40.8317 -74.9397 110° East 299 344 7,000 -1,020 Descending New York Center
07:25PM 40.8078 -74.8533 110° East 287 330 6,300 -540 Descending New York Center
07:26PM 40.7800 -74.7475 109° East 282 325 6,000 -180 Descending New York Center
07:27PM 40.7581 -74.6586 108° East 276 318 6,000  Level New York Center
07:28PM 40.8000 -74.5833 54° Northeast 294 338 6,000 -300 Level New York TRACON
07:29PM 40.8667 -74.5667 11° North 238 274 5,500 -540 Descending New York TRACON
07:30PM 40.9333 -74.5500 11° North 233 268 5,000 -240 Descending New York TRACON
07:31PM 40.9775 -74.5033 39° Northeast 224 258 5,000  Level New York Center
07:32PM 40.9972 -74.4083 75° East 230 265 5,000  Level New York Center
07:33PM 41.0167 -74.3333 71° East 251 289 5,000 -300 Level New York TRACON
07:34PM 41.0167 -74.2500 90° East 245 282 4,500 -540 Descending New York TRACON
07:35PM 40.9833 -74.1833 124° Southeast 231 266 4,000 -420 Descending New York TRACON
07:36PM 40.9333 -74.1167 135° Southeast 196 226 3,700 -540 Descending New York TRACON
07:37PM 40.9000 -74.0833 143° Southeast 180 207 3,000 -600 Descending New York TRACON
07:38PM 40.8500 -74.0833 180° South 177 204 2,600 -360 Descending New York TRACON
07:39PM 40.8000 -74.1000 194° South 175 201 2,300 -600 Descending New York TRACON
07:40PM 40.7667 -74.1167 201° Southwest 151 174 1,500 -840 Descending New York TRACON
07:41PM 40.7333 -74.1500 217° Southwest 148 170 700 -840 Descending New York TRACON